Aviation Digital Data Service (ADDS)

Output produced by METARs form (1714 UTC 07 February 2016)
found at http://aviationweather.gov/adds/metars/
 
KDCA 071457Z 0715/0812 03007KT P6SM BKN200